createdAt,value
2023-10-29T00:00:31.821Z,84.58
2023-10-29T00:01:34.127Z,84.67
2023-10-29T00:02:36.758Z,84.70
2023-10-29T00:03:39.187Z,84.88
2023-10-29T00:04:41.579Z,85.08
2023-10-29T00:05:44.502Z,85.10
2023-10-29T00:06:46.802Z,85.02
2023-10-29T00:07:50.225Z,85.34
2023-10-29T00:08:52.623Z,85.32
2023-10-29T00:09:55.134Z,85.37
2023-10-29T00:10:57.538Z,85.33
2023-10-29T00:11:59.837Z,85.01
2023-10-29T00:13:03.365Z,84.89
2023-10-29T00:14:05.840Z,85.01
2023-10-29T00:15:08.415Z,84.91
2023-10-29T00:16:12.572Z,84.94
2023-10-29T00:17:15.245Z,85.04
2023-10-29T00:18:19.277Z,85.01
2023-10-29T00:19:21.882Z,84.92
2023-10-29T00:20:24.137Z,85.07
2023-10-29T00:21:26.565Z,84.99
2023-10-29T00:22:29.168Z,84.58
2023-10-29T00:23:31.440Z,84.82
2023-10-29T00:24:34.083Z,84.93
2023-10-29T00:25:36.310Z,84.81
2023-10-29T00:26:38.593Z,84.86
2023-10-29T00:27:41.271Z,85.03
2023-10-29T00:28:43.488Z,85.10
2023-10-29T00:29:47.914Z,85.09
2023-10-29T00:30:50.325Z,85.14
2023-10-29T00:31:52.789Z,85.10
2023-10-29T00:32:55.462Z,85.08
2023-10-29T00:33:57.753Z,85.21
2023-10-29T00:35:00.277Z,85.08
2023-10-29T00:36:02.865Z,85.13
2023-10-29T00:37:05.454Z,85.29
2023-10-29T00:38:08.482Z,85.48
2023-10-29T00:39:10.751Z,85.72
2023-10-29T00:40:13.055Z,86.19
2023-10-29T00:41:15.509Z,86.09
2023-10-29T00:42:17.890Z,86.18
2023-10-29T00:43:20.365Z,86.38
2023-10-29T00:44:23.391Z,86.57
2023-10-29T00:45:25.662Z,86.61
2023-10-29T00:46:28.464Z,86.78
2023-10-29T00:47:31.083Z,87.03
2023-10-29T00:48:34.353Z,86.95
2023-10-29T00:49:37.443Z,86.96
2023-10-29T00:50:40.465Z,86.89
2023-10-29T00:51:44.967Z,86.80
2023-10-29T00:52:47.749Z,86.81
2023-10-29T00:53:50.075Z,87.01
2023-10-29T00:54:52.607Z,86.91
2023-10-29T00:55:55.837Z,87.08
2023-10-29T00:56:58.475Z,87.24
2023-10-29T00:58:01.267Z,87.42
2023-10-29T00:59:04.167Z,87.52
2023-10-29T01:00:07.655Z,87.44
2023-10-29T01:01:09.979Z,87.59
2023-10-29T01:02:12.703Z,87.77
2023-10-29T01:03:15.859Z,87.83
2023-10-29T01:04:18.175Z,87.91
2023-10-29T01:05:20.606Z,88.06
2023-10-29T01:06:23.320Z,87.77
2023-10-29T01:07:26.092Z,87.62
2023-10-29T01:08:29.191Z,87.82
2023-10-29T01:09:31.776Z,87.49
2023-10-29T01:10:34.364Z,87.77
2023-10-29T01:11:36.676Z,87.93
2023-10-29T01:12:39.836Z,88.00
2023-10-29T01:13:42.499Z,87.88
2023-10-29T01:14:45.618Z,88.00
2023-10-29T01:15:48.238Z,87.80
2023-10-29T01:16:50.674Z,87.80
2023-10-29T01:17:53.248Z,88.07
2023-10-29T01:18:59.464Z,88.42
2023-10-29T01:20:04.736Z,88.22
2023-10-29T01:21:10.014Z,88.47
2023-10-29T01:22:12.444Z,88.10
2023-10-29T01:23:15.052Z,88.03
2023-10-29T01:24:17.249Z,87.61
2023-10-29T01:25:19.741Z,87.77
2023-10-29T01:26:22.506Z,88.06
2023-10-29T01:27:24.843Z,88.09
2023-10-29T01:28:27.751Z,87.91
2023-10-29T01:29:31.526Z,87.80
2023-10-29T01:30:33.829Z,87.49
2023-10-29T01:31:36.303Z,87.52
2023-10-29T01:32:39.708Z,87.34
2023-10-29T01:33:42.170Z,87.41
2023-10-29T01:34:44.461Z,87.60
2023-10-29T01:35:47.121Z,87.46
2023-10-29T01:36:51.297Z,87.19
2023-10-29T01:37:53.707Z,87.29
2023-10-29T01:38:56.287Z,87.34
2023-10-29T01:39:59.139Z,87.41
2023-10-29T01:41:01.806Z,87.25
2023-10-29T01:42:04.421Z,87.21
2023-10-29T01:43:06.857Z,87.05
2023-10-29T01:44:09.085Z,87.46
2023-10-29T01:45:15.441Z,87.62
2023-10-29T01:46:17.794Z,88.03
2023-10-29T01:47:20.261Z,88.21
2023-10-29T01:48:25.149Z,87.85
2023-10-29T01:49:28.176Z,87.69
2023-10-29T01:50:30.793Z,87.91
2023-10-29T01:51:33.090Z,88.17
2023-10-29T01:52:38.584Z,88.25
2023-10-29T01:53:41.275Z,88.52
2023-10-29T01:54:45.086Z,88.47
2023-10-29T01:55:47.750Z,88.37
2023-10-29T01:56:50.095Z,88.36
2023-10-29T01:57:52.370Z,88.40
2023-10-29T01:58:54.998Z,87.91
2023-10-29T01:59:59.680Z,88.48
2023-10-29T02:01:02.384Z,88.27
2023-10-29T02:02:05.423Z,88.29
2023-10-29T02:03:07.738Z,88.20
2023-10-29T02:04:13.584Z,88.42
2023-10-29T02:05:16.028Z,88.36
2023-10-29T02:06:19.195Z,88.16
2023-10-29T02:07:21.695Z,87.98
2023-10-29T02:08:24.191Z,87.37
2023-10-29T02:09:26.850Z,87.09
2023-10-29T02:10:29.273Z,87.32
2023-10-29T02:11:31.748Z,87.40
2023-10-29T02:12:34.121Z,87.33
2023-10-29T02:13:36.350Z,87.23
2023-10-29T02:14:41.430Z,87.46
2023-10-29T02:15:44.634Z,87.46
2023-10-29T02:16:47.998Z,87.60
2023-10-29T02:17:50.782Z,87.45
2023-10-29T02:18:53.089Z,87.55
2023-10-29T02:19:56.914Z,87.59
2023-10-29T02:20:59.220Z,87.57
2023-10-29T02:22:01.461Z,87.34
2023-10-29T02:23:03.978Z,87.49
2023-10-29T02:24:06.512Z,87.47
2023-10-29T02:25:10.039Z,87.38
2023-10-29T02:26:12.298Z,87.42
2023-10-29T02:27:14.569Z,87.23
2023-10-29T02:28:16.920Z,87.29
2023-10-29T02:29:19.504Z,87.25
2023-10-29T02:30:21.901Z,87.19
2023-10-29T02:31:25.427Z,87.22
2023-10-29T02:32:27.732Z,87.11
2023-10-29T02:33:31.742Z,87.01
2023-10-29T02:34:34.498Z,87.24
2023-10-29T02:35:36.856Z,87.43
2023-10-29T02:36:39.274Z,87.37
2023-10-29T02:37:41.682Z,87.51
2023-10-29T02:38:44.435Z,87.49
2023-10-29T02:39:49.399Z,87.43
2023-10-29T02:40:51.741Z,87.40
2023-10-29T02:41:54.338Z,87.42
2023-10-29T02:42:56.857Z,87.42
2023-10-29T02:43:59.672Z,87.44
2023-10-29T02:45:02.115Z,87.53
2023-10-29T02:46:05.068Z,87.76
2023-10-29T02:47:07.335Z,87.62
2023-10-29T02:48:09.923Z,87.36
2023-10-29T02:49:12.373Z,87.06
2023-10-29T02:50:15.221Z,87.09
2023-10-29T02:51:17.833Z,86.98
2023-10-29T02:52:20.787Z,87.05
2023-10-29T02:53:23.298Z,86.97
2023-10-29T02:54:26.666Z,86.95
2023-10-29T02:55:29.069Z,86.76
2023-10-29T02:56:31.883Z,86.69
2023-10-29T02:57:34.147Z,86.40
2023-10-29T02:58:36.664Z,86.26
2023-10-29T02:59:39.262Z,86.00
2023-10-29T03:00:42.165Z,85.89
2023-10-29T03:01:44.955Z,85.83
2023-10-29T03:02:48.096Z,85.64
2023-10-29T03:03:50.598Z,85.41
2023-10-29T03:04:53.167Z,85.47
2023-10-29T03:05:57.439Z,85.38
2023-10-29T03:07:00.059Z,84.79
2023-10-29T03:08:03.167Z,84.64
2023-10-29T03:09:06.254Z,84.37
2023-10-29T03:10:08.802Z,84.42
2023-10-29T03:11:12.994Z,84.42
2023-10-29T03:12:15.245Z,84.48
2023-10-29T03:13:17.937Z,84.37
2023-10-29T03:14:20.148Z,84.09
2023-10-29T03:15:22.582Z,83.96
2023-10-29T03:16:24.871Z,84.22
2023-10-29T03:17:27.691Z,84.20
2023-10-29T03:18:30.871Z,84.24
2023-10-29T03:19:33.171Z,84.09
2023-10-29T03:20:35.840Z,84.11
2023-10-29T03:21:38.112Z,83.92
2023-10-29T03:22:40.534Z,84.11
2023-10-29T03:23:44.171Z,83.87
2023-10-29T03:24:46.710Z,84.00
2023-10-29T03:25:49.829Z,83.94
2023-10-29T03:26:52.848Z,84.26
2023-10-29T03:27:55.278Z,84.63
2023-10-29T03:28:57.532Z,84.81
2023-10-29T03:30:01.077Z,84.65
2023-10-29T03:31:03.630Z,85.18
2023-10-29T03:32:06.149Z,84.96
2023-10-29T03:33:08.778Z,85.20
2023-10-29T03:34:12.457Z,85.06
2023-10-29T03:35:14.905Z,85.27
2023-10-29T03:36:17.329Z,85.06
2023-10-29T03:37:19.668Z,85.23
2023-10-29T03:38:22.310Z,85.33
2023-10-29T03:39:24.667Z,85.43
2023-10-29T03:40:27.085Z,85.66
2023-10-29T03:41:30.875Z,85.65
2023-10-29T03:42:33.896Z,85.79
2023-10-29T03:43:36.117Z,85.97
2023-10-29T03:44:38.340Z,85.94
2023-10-29T03:45:40.881Z,86.17
2023-10-29T03:46:43.462Z,86.03
2023-10-29T03:47:46.541Z,85.94
2023-10-29T03:48:48.988Z,86.02
2023-10-29T03:49:51.517Z,86.15
2023-10-29T03:50:54.025Z,86.27
2023-10-29T03:51:56.285Z,86.56
2023-10-29T03:52:58.540Z,86.78
2023-10-29T03:54:00.875Z,86.99
2023-10-29T03:55:03.170Z,87.04
2023-10-29T03:56:06.143Z,87.27
2023-10-29T03:57:08.762Z,87.71
2023-10-29T03:58:11.068Z,87.88
2023-10-29T03:59:13.314Z,87.66
2023-10-29T04:00:15.688Z,87.80
2023-10-29T04:01:18.230Z,87.77
2023-10-29T04:02:20.492Z,87.54
2023-10-29T04:03:22.723Z,87.39
2023-10-29T04:04:25.203Z,87.75
2023-10-29T04:05:28.162Z,87.60
2023-10-29T04:06:31.919Z,87.59
2023-10-29T04:07:34.164Z,87.66
2023-10-29T04:08:36.929Z,87.72
2023-10-29T04:09:39.380Z,88.11
2023-10-29T04:10:41.597Z,88.18
2023-10-29T04:11:44.912Z,87.76
2023-10-29T04:12:47.129Z,87.68
2023-10-29T04:13:49.365Z,87.94
2023-10-29T04:14:51.797Z,87.86
2023-10-29T04:15:54.076Z,88.34
2023-10-29T04:16:56.534Z,88.42
2023-10-29T04:17:58.918Z,88.96
2023-10-29T04:19:01.792Z,88.92
2023-10-29T04:20:07.051Z,88.74
2023-10-29T04:21:09.363Z,88.93
2023-10-29T04:22:11.782Z,88.92
2023-10-29T04:23:14.029Z,88.94
2023-10-29T04:24:16.232Z,88.67
2023-10-29T04:25:18.747Z,88.50
2023-10-29T04:26:21.062Z,88.65
2023-10-29T04:27:23.546Z,88.76
2023-10-29T04:28:26.153Z,89.17
2023-10-29T04:29:28.497Z,89.60
2023-10-29T04:30:30.797Z,90.01
2023-10-29T04:31:33.323Z,89.75
2023-10-29T04:32:35.844Z,89.86
2023-10-29T04:34:41.511Z,89.68
2023-10-29T04:35:43.755Z,89.91
2023-10-29T04:36:49.550Z,89.88
2023-10-29T04:37:52.255Z,89.93
2023-10-29T04:38:54.613Z,90.15
2023-10-29T04:39:57.584Z,89.90
2023-10-29T04:40:59.899Z,89.74
2023-10-29T04:42:02.930Z,89.95
2023-10-29T04:43:05.228Z,90.02
2023-10-29T04:44:07.683Z,89.67
2023-10-29T04:45:12.202Z,89.43
2023-10-29T04:46:14.641Z,89.38
2023-10-29T04:47:18.136Z,89.28
2023-10-29T04:48:20.552Z,89.37
2023-10-29T04:49:23.048Z,89.54
2023-10-29T04:50:25.289Z,89.72
2023-10-29T04:51:28.471Z,89.67
2023-10-29T04:52:30.906Z,89.75
2023-10-29T04:53:36.626Z,89.53
2023-10-29T04:54:39.086Z,89.58
2023-10-29T04:55:41.405Z,89.48
2023-10-29T04:56:43.838Z,89.41
2023-10-29T04:57:46.272Z,89.39
2023-10-29T04:58:48.763Z,89.30
2023-10-29T04:59:51.322Z,89.10
2023-10-29T05:00:54.109Z,88.76
2023-10-29T05:01:56.636Z,88.70
2023-10-29T05:02:59.106Z,88.71
2023-10-29T05:04:01.566Z,88.53
2023-10-29T05:05:04.977Z,88.35
2023-10-29T05:06:07.260Z,88.17
2023-10-29T05:07:09.708Z,87.90
2023-10-29T05:08:12.145Z,87.97
2023-10-29T05:09:14.375Z,87.96
2023-10-29T05:10:16.778Z,88.16
2023-10-29T05:11:19.090Z,88.08
2023-10-29T05:12:21.516Z,88.16
2023-10-29T05:13:23.925Z,88.63
2023-10-29T05:14:26.268Z,88.34
2023-10-29T05:15:28.814Z,87.96
2023-10-29T05:16:31.098Z,88.04
2023-10-29T05:17:33.382Z,87.85
2023-10-29T05:18:36.083Z,87.94
2023-10-29T05:19:40.201Z,88.02
2023-10-29T05:20:42.695Z,87.79
2023-10-29T05:21:45.557Z,87.88
2023-10-29T05:22:47.959Z,87.62
2023-10-29T05:23:50.435Z,87.45
2023-10-29T05:24:52.663Z,87.29
2023-10-29T05:25:55.470Z,86.98
2023-10-29T05:26:57.912Z,87.22
2023-10-29T05:28:00.441Z,87.03
2023-10-29T05:29:02.819Z,87.05
2023-10-29T05:30:08.895Z,87.29
2023-10-29T05:31:11.420Z,87.01
2023-10-29T05:32:13.847Z,86.95
2023-10-29T05:33:16.419Z,86.80
2023-10-29T05:34:18.851Z,86.62
2023-10-29T05:35:22.356Z,86.56
2023-10-29T05:36:24.793Z,86.76
2023-10-29T05:37:27.266Z,86.49
2023-10-29T05:38:29.715Z,86.47
2023-10-29T05:39:32.089Z,86.36
2023-10-29T05:40:34.752Z,86.20
2023-10-29T05:41:37.120Z,86.43
2023-10-29T05:42:39.635Z,86.56
2023-10-29T05:43:42.288Z,86.53
2023-10-29T05:44:44.572Z,86.28
2023-10-29T05:45:47.215Z,86.01
2023-10-29T05:46:49.734Z,86.00
2023-10-29T05:47:52.021Z,85.83
2023-10-29T05:48:54.588Z,85.78
2023-10-29T05:49:56.833Z,85.75
2023-10-29T05:50:59.160Z,85.59
2023-10-29T05:52:01.692Z,85.03
2023-10-29T05:53:03.962Z,84.71
2023-10-29T05:54:06.536Z,84.86
2023-10-29T05:55:09.029Z,84.93
2023-10-29T05:56:11.467Z,84.48
2023-10-29T05:57:14.077Z,84.35
2023-10-29T05:58:16.339Z,84.23
2023-10-29T05:59:20.073Z,84.09
2023-10-29T06:00:22.834Z,84.05
2023-10-29T06:01:25.101Z,83.91
2023-10-29T06:02:27.942Z,83.80
2023-10-29T06:03:30.374Z,83.90
2023-10-29T06:04:33.028Z,83.57
2023-10-29T06:05:35.382Z,83.61
2023-10-29T06:06:37.616Z,83.47
2023-10-29T06:07:45.162Z,83.32
2023-10-29T06:08:47.801Z,83.33
2023-10-29T06:09:50.130Z,83.21
2023-10-29T06:10:52.409Z,83.46
2023-10-29T06:11:54.677Z,83.47
2023-10-29T06:12:57.619Z,83.24
2023-10-29T06:14:00.187Z,82.98
2023-10-29T06:15:02.708Z,83.01
2023-10-29T06:16:09.647Z,83.24
2023-10-29T06:17:25.705Z,83.26
2023-10-29T06:18:29.510Z,83.02
2023-10-29T06:19:33.637Z,82.61
2023-10-29T06:20:35.896Z,82.53
2023-10-29T06:21:38.261Z,82.29
2023-10-29T06:22:40.491Z,82.51
2023-10-29T06:23:43.225Z,82.21
2023-10-29T06:24:45.880Z,81.96
2023-10-29T06:25:48.322Z,81.99
2023-10-29T06:26:50.509Z,81.76
2023-10-29T06:27:53.085Z,82.14
2023-10-29T06:28:55.273Z,81.85
2023-10-29T06:29:57.864Z,81.73
2023-10-29T06:31:00.680Z,81.57
2023-10-29T06:32:03.152Z,81.66
2023-10-29T06:33:05.633Z,81.69
2023-10-29T06:34:08.258Z,81.75
2023-10-29T06:35:10.596Z,81.82
2023-10-29T06:36:13.021Z,80.89
2023-10-29T06:37:15.595Z,80.88
2023-10-29T06:38:17.987Z,80.76
2023-10-29T06:39:20.390Z,80.54
2023-10-29T06:40:22.822Z,80.50
2023-10-29T06:41:25.242Z,80.34
2023-10-29T06:42:27.552Z,80.44
2023-10-29T06:43:29.965Z,80.76
2023-10-29T06:44:32.401Z,80.18
2023-10-29T06:45:34.745Z,80.07
2023-10-29T06:46:37.186Z,80.15
2023-10-29T06:47:39.522Z,80.11
2023-10-29T06:48:43.095Z,79.79
2023-10-29T06:49:45.600Z,79.63
2023-10-29T06:50:47.863Z,79.90
2023-10-29T06:53:19.234Z,79.81
2023-10-29T06:54:21.676Z,79.69
2023-10-29T06:55:27.226Z,79.57
2023-10-29T06:56:29.564Z,79.68
2023-10-29T06:57:31.965Z,79.88
2023-10-29T06:58:34.508Z,79.53
2023-10-29T06:59:36.711Z,79.99
2023-10-29T07:00:39.229Z,79.79
2023-10-29T07:01:41.494Z,79.75
2023-10-29T07:02:43.865Z,80.03
2023-10-29T07:03:46.953Z,80.19
2023-10-29T07:04:50.176Z,80.69
2023-10-29T07:05:52.613Z,80.92
2023-10-29T07:06:55.092Z,80.74
2023-10-29T07:07:57.447Z,80.72
2023-10-29T07:09:00.578Z,80.84
2023-10-29T07:10:05.402Z,80.62
2023-10-29T07:11:07.739Z,80.20
2023-10-29T07:12:10.139Z,80.00
2023-10-29T07:13:12.723Z,79.62
2023-10-29T07:14:15.102Z,79.71
2023-10-29T07:15:17.843Z,79.96
2023-10-29T07:16:20.110Z,79.75
2023-10-29T07:17:23.776Z,79.62
2023-10-29T07:18:26.434Z,79.50
2023-10-29T07:19:28.713Z,79.60
2023-10-29T07:20:31.375Z,79.52
2023-10-29T07:21:33.600Z,79.74
2023-10-29T07:22:36.789Z,79.66
2023-10-29T07:23:39.009Z,79.76
2023-10-29T07:24:41.223Z,79.43
2023-10-29T07:25:43.832Z,79.76
2023-10-29T07:26:46.092Z,79.30
2023-10-29T07:27:48.402Z,79.36
2023-10-29T07:28:50.604Z,79.33
2023-10-29T07:29:52.894Z,79.61
2023-10-29T07:30:56.862Z,79.82
2023-10-29T07:31:59.097Z,80.20
2023-10-29T07:33:01.596Z,80.44
2023-10-29T07:34:04.008Z,80.40
2023-10-29T07:35:06.371Z,80.06
2023-10-29T07:36:09.376Z,80.37
2023-10-29T07:37:13.492Z,80.56
2023-10-29T07:38:15.983Z,80.48
2023-10-29T07:39:18.369Z,80.14
2023-10-29T07:40:20.639Z,79.77
2023-10-29T07:41:23.631Z,79.17
2023-10-29T07:42:26.101Z,78.72
2023-10-29T07:43:28.814Z,78.78
2023-10-29T07:44:31.057Z,78.37
2023-10-29T07:45:33.352Z,78.27
2023-10-29T07:46:36.218Z,78.51
2023-10-29T07:47:38.628Z,78.29
2023-10-29T07:48:41.548Z,78.07
2023-10-29T07:49:43.787Z,78.00
2023-10-29T07:50:52.311Z,77.46
2023-10-29T07:51:54.904Z,77.28
2023-10-29T07:52:57.234Z,77.31
2023-10-29T07:54:01.081Z,76.96
2023-10-29T07:55:03.852Z,76.34
2023-10-29T07:56:14.576Z,76.44
2023-10-29T07:57:16.822Z,76.18
2023-10-29T07:58:19.785Z,76.24
2023-10-29T07:59:22.492Z,75.86
2023-10-29T08:00:24.700Z,75.70
2023-10-29T08:01:27.403Z,75.46
2023-10-29T08:02:31.166Z,75.27
2023-10-29T08:03:33.532Z,75.11
2023-10-29T08:04:36.063Z,74.50
2023-10-29T08:05:38.337Z,74.18
2023-10-29T08:06:40.983Z,74.17
2023-10-29T08:07:43.226Z,73.92
2023-10-29T08:08:45.490Z,73.92
2023-10-29T08:09:47.956Z,73.61
2023-10-29T08:10:50.274Z,73.59
2023-10-29T08:11:53.007Z,73.39
2023-10-29T08:12:55.228Z,73.03
2023-10-29T08:13:58.077Z,72.89
2023-10-29T08:15:00.557Z,73.18
2023-10-29T08:16:04.016Z,72.90
2023-10-29T08:17:06.861Z,72.33
2023-10-29T08:18:09.205Z,72.60
2023-10-29T08:19:11.831Z,72.21
2023-10-29T08:20:14.285Z,72.16
2023-10-29T08:21:16.575Z,71.99
2023-10-29T08:22:19.457Z,71.71
2023-10-29T08:23:21.664Z,71.99
2023-10-29T08:24:23.892Z,71.90
2023-10-29T08:25:26.299Z,71.92
2023-10-29T08:26:30.673Z,72.01
2023-10-29T08:27:33.127Z,72.19
2023-10-29T08:28:37.106Z,71.95
2023-10-29T08:29:41.175Z,72.26
2023-10-29T08:30:43.695Z,72.40
2023-10-29T08:31:45.956Z,72.61
2023-10-29T08:32:48.439Z,72.83
2023-10-29T08:33:50.719Z,72.74
2023-10-29T08:34:52.974Z,73.01
2023-10-29T08:35:55.513Z,72.86
2023-10-29T08:36:58.236Z,72.95
2023-10-29T08:38:00.487Z,72.80
2023-10-29T08:39:03.152Z,72.78
2023-10-29T08:40:06.285Z,73.22
2023-10-29T08:41:18.262Z,73.24
2023-10-29T08:42:20.662Z,73.04
2023-10-29T08:43:22.874Z,72.67
2023-10-29T08:44:25.210Z,72.50
2023-10-29T08:45:41.017Z,72.54
2023-10-29T08:46:44.676Z,71.88
2023-10-29T08:47:47.146Z,72.49
2023-10-29T08:48:49.428Z,72.26
2023-10-29T08:49:51.929Z,72.19
2023-10-29T08:50:54.333Z,72.23
2023-10-29T08:51:56.604Z,72.41
2023-10-29T08:52:59.522Z,72.54
2023-10-29T08:54:03.943Z,72.41
2023-10-29T08:55:08.044Z,71.81
2023-10-29T08:56:10.464Z,71.93
2023-10-29T08:57:12.871Z,71.87
2023-10-29T08:58:15.960Z,71.74
2023-10-29T08:59:18.275Z,72.17
2023-10-29T09:00:20.490Z,71.60
2023-10-29T09:01:33.635Z,71.39
2023-10-29T09:02:35.973Z,71.28
2023-10-29T09:03:38.494Z,71.34
2023-10-29T09:04:40.930Z,71.40
2023-10-29T09:05:44.219Z,71.07
2023-10-29T09:06:46.850Z,71.59
2023-10-29T09:07:49.271Z,71.55
2023-10-29T09:08:52.261Z,71.20
2023-10-29T09:09:55.175Z,71.07
2023-10-29T09:10:57.420Z,70.73
2023-10-29T09:11:59.783Z,71.34
2023-10-29T09:13:02.219Z,70.55
2023-10-29T09:14:04.845Z,70.27
2023-10-29T09:15:08.105Z,70.36
2023-10-29T09:16:10.811Z,70.23
2023-10-29T09:17:13.929Z,70.40
2023-10-29T09:18:16.510Z,70.36
2023-10-29T09:19:18.833Z,69.90
2023-10-29T09:20:21.068Z,69.32
2023-10-29T09:21:23.499Z,69.59
2023-10-29T09:22:25.781Z,69.84
2023-10-29T09:23:31.112Z,69.79
2023-10-29T09:24:33.398Z,69.64
2023-10-29T09:25:35.617Z,69.21
2023-10-29T09:26:38.078Z,68.79
2023-10-29T09:27:42.224Z,68.81
2023-10-29T09:28:44.742Z,68.71
2023-10-29T09:29:47.675Z,68.42
2023-10-29T09:30:50.129Z,68.10
2023-10-29T09:31:53.404Z,68.10
2023-10-29T09:32:58.128Z,68.26
2023-10-29T09:34:02.385Z,67.72
2023-10-29T09:35:05.903Z,66.73
2023-10-29T09:36:09.122Z,66.43
2023-10-29T09:37:11.620Z,65.91
2023-10-29T09:38:14.120Z,65.68
2023-10-29T09:39:16.361Z,65.72
2023-10-29T09:40:20.070Z,65.52
2023-10-29T09:41:22.319Z,64.80
2023-10-29T09:42:30.254Z,64.55
2023-10-29T09:43:39.921Z,65.19
2023-10-29T09:44:43.640Z,64.92
2023-10-29T09:45:48.864Z,64.71
2023-10-29T09:46:58.275Z,63.88
2023-10-29T09:48:00.854Z,64.66
2023-10-29T09:49:05.479Z,64.14
2023-10-29T09:50:09.614Z,64.22
2023-10-29T09:51:11.959Z,64.35
2023-10-29T09:52:15.010Z,63.93
2023-10-29T09:53:19.253Z,63.33
2023-10-29T09:54:21.821Z,63.09
2023-10-29T09:55:24.393Z,62.81
2023-10-29T09:56:28.060Z,62.81
2023-10-29T09:57:31.260Z,62.46
2023-10-29T09:58:35.211Z,62.46
2023-10-29T09:59:37.757Z,62.77
2023-10-29T10:00:40.417Z,62.68
2023-10-29T10:01:57.577Z,62.37
2023-10-29T10:03:01.604Z,61.86
2023-10-29T10:04:04.607Z,61.89
2023-10-29T10:05:11.151Z,61.83
2023-10-29T10:06:19.364Z,61.05
2023-10-29T10:07:23.713Z,61.37
2023-10-29T10:08:27.592Z,61.15
2023-10-29T10:09:56.633Z,60.87
2023-10-29T10:10:59.854Z,60.51
2023-10-29T10:12:05.900Z,60.35
2023-10-29T10:13:09.901Z,60.44
2023-10-29T10:14:28.118Z,60.70
2023-10-29T10:15:30.327Z,61.01
2023-10-29T10:16:33.082Z,61.33
2023-10-29T10:17:35.384Z,61.10
2023-10-29T10:18:51.975Z,61.69
2023-10-29T10:20:07.894Z,62.04
2023-10-29T10:21:10.218Z,62.40
2023-10-29T10:22:12.998Z,62.54
2023-10-29T10:23:15.415Z,62.25
2023-10-29T10:24:18.318Z,62.72
2023-10-29T10:25:24.811Z,62.95
2023-10-29T10:26:28.191Z,63.45
2023-10-29T10:27:31.128Z,62.35
2023-10-29T10:28:33.937Z,62.56
2023-10-29T10:29:36.773Z,62.77
2023-10-29T10:30:40.131Z,62.84
2023-10-29T10:31:42.746Z,62.74
2023-10-29T10:32:46.321Z,62.59
2023-10-29T10:33:50.321Z,62.26
2023-10-29T10:34:53.396Z,62.73
2023-10-29T10:35:56.366Z,62.24
2023-10-29T10:37:01.781Z,62.32
2023-10-29T10:38:04.620Z,62.82
2023-10-29T10:39:07.140Z,63.12
2023-10-29T10:40:27.619Z,63.20
2023-10-29T10:41:46.394Z,63.64
2023-10-29T10:42:55.426Z,62.76
2023-10-29T10:44:27.812Z,62.98
2023-10-29T10:45:32.830Z,62.77
2023-10-29T10:46:37.899Z,62.52
2023-10-29T10:47:40.371Z,62.94
2023-10-29T10:48:43.505Z,63.12
2023-10-29T10:49:47.531Z,62.72
2023-10-29T10:50:54.571Z,63.15
2023-10-29T10:51:59.278Z,62.87
2023-10-29T10:53:02.150Z,62.60
2023-10-29T10:54:05.945Z,62.81
2023-10-29T10:55:17.841Z,63.14
2023-10-29T10:56:36.989Z,62.83
2023-10-29T10:57:39.547Z,62.96
2023-10-29T10:58:43.415Z,63.15
2023-10-29T10:59:46.160Z,63.22
2023-10-29T11:00:51.143Z,63.37
2023-10-29T11:01:53.459Z,63.32
2023-10-29T11:02:58.440Z,63.56
2023-10-29T11:04:03.170Z,63.24
2023-10-29T11:05:07.065Z,63.42
2023-10-29T11:06:12.308Z,63.30
2023-10-29T11:07:14.645Z,63.19
2023-10-29T11:08:17.787Z,63.79
2023-10-29T11:09:20.974Z,63.67
2023-10-29T11:10:24.464Z,63.80
2023-10-29T11:11:34.862Z,63.18
2023-10-29T11:12:37.831Z,62.89
2023-10-29T11:13:40.373Z,63.26
2023-10-29T11:15:22.054Z,63.71
2023-10-29T11:16:26.387Z,62.78
2023-10-29T11:17:56.878Z,63.16
2023-10-29T11:19:01.853Z,63.70
2023-10-29T11:20:04.432Z,64.03
2023-10-29T11:21:07.103Z,64.01
2023-10-29T11:22:23.346Z,63.87
2023-10-29T11:23:30.116Z,63.22
2023-10-29T11:24:32.564Z,63.78
2023-10-29T11:25:35.546Z,63.30
2023-10-29T11:26:38.019Z,63.38
2023-10-29T11:27:44.600Z,63.36
2023-10-29T11:28:47.063Z,63.24
2023-10-29T11:29:49.532Z,63.27
2023-10-29T11:31:16.697Z,63.24
2023-10-29T11:32:27.020Z,63.60
2023-10-29T11:33:29.372Z,63.60
2023-10-29T11:34:31.649Z,63.38
2023-10-29T11:35:35.053Z,63.76
2023-10-29T11:36:43.101Z,63.20
2023-10-29T11:37:45.476Z,63.05
2023-10-29T11:38:47.824Z,62.96
2023-10-29T11:39:50.093Z,62.71
2023-10-29T11:40:52.538Z,62.44
2023-10-29T11:41:55.744Z,62.37
2023-10-29T11:43:14.840Z,61.92
2023-10-29T11:44:19.986Z,62.34
2023-10-29T11:45:33.043Z,61.61
2023-10-29T11:47:00.192Z,61.18
2023-10-29T11:48:09.969Z,61.23
2023-10-29T11:49:12.308Z,61.08
2023-10-29T11:50:14.737Z,60.98
2023-10-29T11:51:18.934Z,60.86
2023-10-29T11:52:21.348Z,61.33
2023-10-29T11:53:27.369Z,60.83
2023-10-29T11:54:30.709Z,60.44
2023-10-29T11:56:07.183Z,60.53
2023-10-29T11:57:10.565Z,60.55
2023-10-29T11:58:12.782Z,60.56
2023-10-29T11:59:15.087Z,60.86
2023-10-29T12:00:17.471Z,59.90
2023-10-29T12:01:20.602Z,60.40
2023-10-29T12:02:23.542Z,60.96
2023-10-29T12:03:27.198Z,60.72
2023-10-29T12:04:31.269Z,60.48
2023-10-29T12:05:33.713Z,59.91
2023-10-29T12:06:45.540Z,60.09
2023-10-29T12:07:47.980Z,60.28
2023-10-29T12:08:50.334Z,60.29
2023-10-29T12:10:07.272Z,60.23
2023-10-29T12:11:09.653Z,60.18
2023-10-29T12:12:12.714Z,60.55
2023-10-29T12:13:18.236Z,60.59
2023-10-29T12:14:48.212Z,60.59
2023-10-29T12:15:58.656Z,60.82
2023-10-29T12:17:01.761Z,60.41
2023-10-29T12:18:04.535Z,60.61
2023-10-29T12:19:07.884Z,60.46
2023-10-29T12:20:21.590Z,60.55
2023-10-29T12:21:23.836Z,60.82
2023-10-29T12:22:31.970Z,60.69
2023-10-29T12:23:36.621Z,60.46
2023-10-29T12:24:39.143Z,60.33
2023-10-29T12:25:42.325Z,60.25
2023-10-29T12:26:44.606Z,60.12
2023-10-29T12:27:47.178Z,60.04
2023-10-29T12:28:50.726Z,60.14
2023-10-29T12:29:53.929Z,60.14
2023-10-29T12:30:57.853Z,59.84
2023-10-29T12:32:00.180Z,60.05
2023-10-29T12:33:21.300Z,59.39
2023-10-29T12:34:23.680Z,59.68
2023-10-29T12:35:36.760Z,59.32
2023-10-29T12:36:39.725Z,59.70
2023-10-29T12:37:41.945Z,59.72
2023-10-29T12:38:44.627Z,59.68
2023-10-29T12:39:48.085Z,59.64
2023-10-29T12:41:14.263Z,59.71
2023-10-29T12:42:16.883Z,59.74
2023-10-29T12:43:42.496Z,59.68
2023-10-29T12:44:57.684Z,59.86
2023-10-29T12:46:05.223Z,59.97
2023-10-29T12:47:08.225Z,59.93
2023-10-29T12:48:11.770Z,59.92
2023-10-29T12:49:14.346Z,59.88
2023-10-29T12:50:16.835Z,60.29
2023-10-29T12:51:23.711Z,60.41
2023-10-29T12:52:27.384Z,60.34
2023-10-29T12:53:34.374Z,60.39
2023-10-29T12:54:43.847Z,60.80
2023-10-29T12:55:47.013Z,60.74
2023-10-29T12:57:03.183Z,60.24
2023-10-29T12:58:05.512Z,60.70
2023-10-29T12:59:08.959Z,60.21
2023-10-29T13:00:13.613Z,60.34
2023-10-29T13:01:16.558Z,59.69
2023-10-29T13:02:23.738Z,60.15
2023-10-29T13:03:26.395Z,60.08
2023-10-29T13:04:28.984Z,59.96
2023-10-29T13:05:32.509Z,60.35
2023-10-29T13:06:34.936Z,60.37
2023-10-29T13:07:41.037Z,60.56
2023-10-29T13:08:43.263Z,60.41
2023-10-29T13:09:46.210Z,60.41
2023-10-29T13:10:48.443Z,60.48
2023-10-29T13:11:53.176Z,60.64
2023-10-29T13:12:55.471Z,60.64
2023-10-29T13:14:08.233Z,60.65
2023-10-29T13:15:11.749Z,60.98
2023-10-29T13:16:14.148Z,60.51
2023-10-29T13:17:16.556Z,60.61
2023-10-29T13:18:20.413Z,60.40
2023-10-29T13:19:23.967Z,60.38
2023-10-29T13:20:27.922Z,60.98
2023-10-29T13:21:31.116Z,61.00
2023-10-29T13:22:33.571Z,60.85
2023-10-29T13:23:35.866Z,61.16
2023-10-29T13:24:38.445Z,60.97
2023-10-29T13:25:41.781Z,61.12
2023-10-29T13:26:44.363Z,60.67
2023-10-29T13:27:46.853Z,61.00
2023-10-29T13:28:50.891Z,60.75
2023-10-29T13:29:53.252Z,60.64
2023-10-29T13:30:56.444Z,60.63
2023-10-29T13:31:59.891Z,60.51
2023-10-29T13:33:02.220Z,60.77
2023-10-29T13:34:09.823Z,60.59
2023-10-29T13:35:12.539Z,60.39
2023-10-29T13:36:16.165Z,60.57
2023-10-29T13:37:19.461Z,60.35
2023-10-29T13:38:21.969Z,60.61
2023-10-29T13:39:24.211Z,60.66
2023-10-29T13:40:26.928Z,60.55
2023-10-29T13:41:29.160Z,60.32
2023-10-29T13:42:31.588Z,60.29
2023-10-29T13:43:34.213Z,60.58